TAF Text Data
IDs:
Format:
Raw Decoded Include METAR

Data at: 0623 UTC 15 Nov 2018

TAF ETSI 150515Z 1506/1515 07005KT 8000 NSW OVC008
  TEMPO 1506/1509 09003KT 4000 BR OVC005
  BECMG 1509/1511 07007KT 9000 NSW BKN012 SCT180
  TEMPO 1512/1515 07012KT 9999 NSW SCT015 BKN180